Time;durP1;ratioP1;P1;durP2;ratioP2;P2;SDS_P1;SDS_P2;PMS_P1;PMS_P2;Temp;Humidity;BMP_temperature;BMP_pressure;BME280_temperature;BME280_humidity;BME280_pressure;Samples;Min_cycle;Max_cycle;Signal;HPM_P1;HPM_P2
2021/06/22 00:01:05;;;;;;;11.97;7.00;;;12.20;94.40;;;;;;5051947;28;20494;-74
2021/06/22 00:03:31;;;;;;;13.17;7.30;;;12.10;94.40;;;;;;5052200;28;20068;-74
2021/06/22 00:05:56;;;;;;;11.73;7.03;;;12.10;94.50;;;;;;5051170;28;20056;-74
2021/06/22 00:08:22;;;;;;;9.07;6.80;;;12.10;94.50;;;;;;5051796;28;20045;-74
2021/06/22 00:10:48;;;;;;;11.90;7.33;;;12.10;94.50;;;;;;5050913;28;20052;-74
2021/06/22 00:13:14;;;;;;;10.47;6.90;;;12.00;94.50;;;;;;5050977;28;20052;-75
2021/06/22 00:15:40;;;;;;;13.60;7.80;;;12.10;94.60;;;;;;5051748;28;20059;-74
2021/06/22 00:18:06;;;;;;;10.43;6.57;;;12.10;94.70;;;;;;5050775;28;20040;-74
2021/06/22 00:20:32;;;;;;;11.90;6.70;;;12.10;94.70;;;;;;5051715;28;20088;-75
2021/06/22 00:22:58;;;;;;;10.97;6.70;;;12.10;94.70;;;;;;5051608;28;20427;-75
2021/06/22 00:25:25;;;;;;;13.10;7.00;;;12.10;94.70;;;;;;5051127;28;20820;-75
2021/06/22 00:27:52;;;;;;;15.23;7.40;;;12.20;94.80;;;;;;5051787;28;20156;-74
2021/06/22 00:30:19;;;;;;;12.57;7.07;;;12.30;94.80;;;;;;5051322;28;20060;-75
2021/06/22 00:32:45;;;;;;;12.43;6.53;;;12.30;94.70;;;;;;5050761;28;20524;-74
2021/06/22 00:35:12;;;;;;;8.93;6.00;;;12.40;94.70;;;;;;5051410;28;20059;-74
2021/06/22 00:37:39;;;;;;;12.17;6.03;;;12.50;94.60;;;;;;5051895;28;20068;-74
2021/06/22 00:40:05;;;;;;;16.53;5.43;;;12.50;94.60;;;;;;5050429;28;20053;-75
2021/06/22 00:42:31;;;;;;;13.00;4.67;;;12.50;94.50;;;;;;5051629;28;20126;-74
2021/06/22 00:44:59;;;;;;;14.50;5.30;;;12.50;94.30;;;;;;5051537;28;20481;-74
2021/06/22 00:47:26;;;;;;;11.63;4.80;;;12.60;94.10;;;;;;5051394;28;20151;-74
2021/06/22 00:49:53;;;;;;;11.97;4.50;;;12.70;94.00;;;;;;5052146;28;20041;-74
2021/06/22 00:52:21;;;;;;;16.07;4.53;;;12.70;93.80;;;;;;5051208;28;20076;-73
2021/06/22 00:54:47;;;;;;;12.53;4.53;;;12.70;93.70;;;;;;5051380;28;20045;-73
2021/06/22 00:57:14;;;;;;;11.77;4.20;;;12.80;93.50;;;;;;5051595;28;20473;-74
2021/06/22 00:59:40;;;;;;;12.50;4.60;;;12.80;93.30;;;;;;5051448;28;20048;-73
2021/06/22 01:02:06;;;;;;;9.93;5.33;;;12.80;93.20;;;;;;5050037;28;20474;-75
2021/06/22 01:04:33;;;;;;;11.50;5.03;;;12.80;93.00;;;;;;5051429;28;20069;-74
2021/06/22 01:07:00;;;;;;;11.80;5.10;;;12.80;92.80;;;;;;5050674;28;20065;-74
2021/06/22 01:09:29;;;;;;;12.60;5.67;;;12.80;92.70;;;;;;5050461;28;20129;-74
2021/06/22 01:11:56;;;;;;;13.20;6.10;;;12.70;92.50;;;;;;5051334;28;20398;-74
2021/06/22 01:14:24;;;;;;;13.37;6.03;;;12.80;92.50;;;;;;5050205;28;20048;-74
2021/06/22 01:16:50;;;;;;;14.30;6.47;;;12.80;92.40;;;;;;5051089;28;20063;-73
2021/06/22 01:19:16;;;;;;;15.37;6.93;;;12.80;92.20;;;;;;5050745;28;20045;-73
2021/06/22 01:21:42;;;;;;;12.20;6.80;;;12.80;92.10;;;;;;5050042;28;20055;-73
2021/06/22 01:24:17;;;;;;;16.97;8.17;;;12.80;92.10;;;;;;5050630;28;20512;-74
2021/06/22 01:26:55;;;;;;;15.10;8.63;;;12.80;92.00;;;;;;5050541;28;20055;-74
2021/06/22 01:29:22;;;;;;;18.20;8.30;;;12.80;91.80;;;;;;5049892;28;20048;-74
2021/06/22 01:31:48;;;;;;;16.37;8.80;;;12.80;91.80;;;;;;5051014;28;20049;-74
2021/06/22 01:34:14;;;;;;;13.80;8.80;;;12.80;91.70;;;;;;5050598;28;20087;-74
2021/06/22 01:36:45;;;;;;;19.00;9.97;;;12.80;91.70;;;;;;5050127;28;20045;-74
2021/06/22 01:39:13;;;;;;;19.70;10.00;;;12.80;91.50;;;;;;5050243;28;20097;-74
2021/06/22 01:41:39;;;;;;;18.17;9.67;;;12.70;91.50;;;;;;5050677;28;20045;-74
2021/06/22 01:44:05;;;;;;;18.37;10.43;;;12.80;91.50;;;;;;5049734;28;20551;-74
2021/06/22 01:46:32;;;;;;;19.80;10.40;;;12.70;91.60;;;;;;5050658;28;20501;-75
2021/06/22 01:48:58;;;;;;;16.70;11.70;;;12.70;91.50;;;;;;5050535;28;20045;-74
2021/06/22 01:51:24;;;;;;;21.23;11.80;;;12.70;91.50;;;;;;5049914;28;20505;-74
2021/06/22 01:53:52;;;;;;;16.17;12.27;;;12.70;91.40;;;;;;5050621;28;20534;-74
2021/06/22 01:56:20;;;;;;;17.53;11.67;;;12.70;91.30;;;;;;5050212;28;20180;-74
2021/06/22 01:58:48;;;;;;;21.67;12.80;;;12.60;91.30;;;;;;5050194;28;20048;-75
2021/06/22 02:01:14;;;;;;;17.20;11.47;;;12.60;91.40;;;;;;5050275;28;20053;-74
2021/06/22 02:03:39;;;;;;;19.03;12.43;;;12.60;91.30;;;;;;5049592;28;20113;-74
2021/06/22 02:06:05;;;;;;;18.80;11.60;;;12.50;91.30;;;;;;5049853;28;20136;-74
2021/06/22 02:08:31;;;;;;;20.33;12.73;;;12.50;91.30;;;;;;5050239;28;20114;-74
2021/06/22 02:10:57;;;;;;;15.67;12.33;;;12.50;91.20;;;;;;5049715;28;20049;-74
2021/06/22 02:13:24;;;;;;;19.67;13.43;;;12.40;91.20;;;;;;5050236;28;20068;-73
2021/06/22 02:15:49;;;;;;;23.97;13.80;;;12.40;91.30;;;;;;5050258;28;20128;-74
2021/06/22 02:18:15;;;;;;;21.40;12.77;;;12.30;91.30;;;;;;5049371;28;20455;-74
2021/06/22 02:20:41;;;;;;;19.37;13.13;;;12.30;91.30;;;;;;5050176;28;20061;-74
2021/06/22 02:23:08;;;;;;;21.47;13.03;;;12.30;91.30;;;;;;5049804;28;20406;-74
2021/06/22 02:25:34;;;;;;;24.97;13.30;;;12.20;91.30;;;;;;5049439;28;20076;-74
2021/06/22 02:28:04;;;;;;;16.57;13.47;;;12.20;91.30;;;;;;5050034;28;20045;-74
2021/06/22 02:30:30;;;;;;;21.67;14.00;;;12.20;91.40;;;;;;5050036;28;20053;-74
2021/06/22 02:32:56;;;;;;;18.23;12.60;;;12.10;91.40;;;;;;5049191;28;20152;-74
2021/06/22 02:35:22;;;;;;;21.03;14.00;;;12.10;91.40;;;;;;5052024;28;20163;-74
2021/06/22 02:37:51;;;;;;;21.53;13.60;;;12.10;91.40;;;;;;5053359;28;20060;-74
2021/06/22 02:40:17;;;;;;;19.30;13.87;;;12.10;91.40;;;;;;5052331;28;20064;-74
2021/06/22 02:42:43;;;;;;;22.13;14.73;;;12.00;91.50;;;;;;5053659;28;20123;-74
2021/06/22 02:45:09;;;;;;;22.57;14.17;;;12.00;91.50;;;;;;5053034;28;20509;-74
2021/06/22 02:47:35;;;;;;;20.50;13.63;;;11.90;91.50;;;;;;5052683;28;20053;-73
2021/06/22 02:50:01;;;;;;;24.57;14.60;;;11.90;91.50;;;;;;5053601;28;20466;-74
2021/06/22 02:52:26;;;;;;;22.00;14.90;;;11.90;91.50;;;;;;5053557;28;20064;-74
2021/06/22 02:54:52;;;;;;;21.57;13.90;;;11.90;91.50;;;;;;5053112;28;20049;-74
2021/06/22 02:57:18;;;;;;;25.60;14.90;;;11.80;91.50;;;;;;5053159;28;20064;-74
2021/06/22 02:59:43;;;;;;;23.50;14.20;;;11.80;91.60;;;;;;5053598;28;20474;-74
2021/06/22 03:02:09;;;;;;;23.63;14.67;;;11.80;91.60;;;;;;5055058;28;20057;-74
2021/06/22 03:04:35;;;;;;;21.23;14.07;;;11.80;91.50;;;;;;5053356;28;20045;-74
2021/06/22 03:07:01;;;;;;;20.63;15.13;;;11.80;91.50;;;;;;5052948;28;20395;-74
2021/06/22 03:09:27;;;;;;;21.33;13.70;;;11.70;91.40;;;;;;5053627;28;20098;-74
2021/06/22 03:11:54;;;;;;;18.17;13.30;;;11.70;91.30;;;;;;5053060;28;20405;-74
2021/06/22 03:14:21;;;;;;;24.00;14.33;;;11.70;91.30;;;;;;5052017;28;20052;-73
2021/06/22 03:16:47;;;;;;;21.90;13.97;;;11.70;91.30;;;;;;5052849;28;20113;-74
2021/06/22 03:19:13;;;;;;;19.00;14.53;;;11.70;91.20;;;;;;5052487;28;20091;-73
2021/06/22 03:21:44;;;;;;;25.83;14.17;;;11.70;91.20;;;;;;5052014;28;20097;-73
2021/06/22 03:24:15;;;;;;;18.70;12.70;;;11.70;91.10;;;;;;5052701;28;20132;-73
2021/06/22 03:26:41;;;;;;;21.50;13.70;;;11.60;91.50;;;;;;5052708;28;20055;-73
2021/06/22 03:29:08;;;;;;;23.33;13.93;;;11.60;91.00;;;;;;5051640;28;20299;-73
2021/06/22 03:31:35;;;;;;;21.07;13.40;;;11.70;91.00;;;;;;5052497;28;20395;-73
2021/06/22 03:34:01;;;;;;;19.60;14.03;;;11.60;90.90;;;;;;5052018;28;20474;-73
2021/06/22 03:36:26;;;;;;;24.90;14.67;;;11.60;90.90;;;;;;5051941;28;20129;-74
2021/06/22 03:38:53;;;;;;;20.37;14.33;;;11.60;90.90;;;;;;5052506;28;20060;-73
2021/06/22 03:41:19;;;;;;;23.00;14.57;;;11.60;90.90;;;;;;5052360;28;20113;-73
2021/06/22 03:43:44;;;;;;;22.80;14.53;;;11.60;90.90;;;;;;5051747;28;20041;-73
2021/06/22 03:46:10;;;;;;;19.27;12.87;;;11.60;91.40;;;;;;5051924;28;20110;-73
2021/06/22 03:48:36;;;;;;;19.93;12.87;;;11.60;91.00;;;;;;5052194;28;20098;-73
2021/06/22 03:51:03;;;;;;;18.60;13.87;;;11.60;91.10;;;;;;5051569;28;20048;-73
2021/06/22 03:53:28;;;;;;;20.47;14.67;;;11.60;91.10;;;;;;5052261;28;20041;-73
2021/06/22 03:55:54;;;;;;;20.17;12.90;;;11.60;91.00;;;;;;5052124;28;20183;-73
2021/06/22 03:58:21;;;;;;;22.13;13.00;;;11.60;90.90;;;;;;5050949;28;20052;-73
2021/06/22 04:00:46;;;;;;;19.27;12.47;;;11.60;90.90;;;;;;5051971;28;20049;-73
2021/06/22 04:03:14;;;;;;;21.80;13.77;;;11.60;90.90;;;;;;5033122;28;20098;-73
2021/06/22 04:05:40;;;;;;;24.03;14.97;;;11.70;91.00;;;;;;5051832;28;20397;-73
2021/06/22 04:08:06;;;;;;;18.20;15.10;;;11.60;91.10;;;;;;5051569;28;20505;-73
2021/06/22 04:10:32;;;;;;;21.53;14.47;;;11.60;91.20;;;;;;5051268;28;20076;-73
2021/06/22 04:12:58;;;;;;;20.87;15.13;;;11.60;91.40;;;;;;5051575;28;20462;-73
2021/06/22 04:15:24;;;;;;;17.40;14.20;;;11.60;91.50;;;;;;5051661;28;20180;-73
2021/06/22 04:17:50;;;;;;;21.43;15.07;;;11.60;91.60;;;;;;5050923;28;20478;-73
2021/06/22 04:20:16;;;;;;;24.60;15.47;;;11.50;91.60;;;;;;5051885;28;20156;-73
2021/06/22 04:22:42;;;;;;;25.43;15.40;;;11.50;91.70;;;;;;5051744;28;20110;-73
2021/06/22 04:25:10;;;;;;;23.17;16.57;;;11.50;91.70;;;;;;5050486;28;20049;-73
2021/06/22 04:27:35;;;;;;;23.83;16.63;;;11.50;91.80;;;;;;5051640;28;20071;-73
2021/06/22 04:30:05;;;;;;;24.57;15.67;;;11.40;91.90;;;;;;5051043;28;20053;-73
2021/06/22 04:32:31;;;;;;;19.93;14.70;;;11.40;92.10;;;;;;5050543;28;20049;-72
2021/06/22 04:34:57;;;;;;;20.73;13.10;;;11.40;92.20;;;;;;5051451;28;20103;-73
2021/06/22 04:37:23;;;;;;;23.53;15.67;;;11.50;92.30;;;;;;5051365;28;20051;-73
2021/06/22 04:39:48;;;;;;;22.10;16.70;;;11.40;92.20;;;;;;5050357;28;20140;-72
2021/06/22 04:42:14;;;;;;;20.13;15.83;;;11.50;92.30;;;;;;5050939;28;20048;-73
2021/06/22 04:44:40;;;;;;;21.53;15.83;;;11.50;92.30;;;;;;5051180;28;20049;-73
2021/06/22 04:47:06;;;;;;;24.07;14.50;;;11.50;92.30;;;;;;5049814;28;20066;-73
2021/06/22 04:49:32;;;;;;;25.73;16.87;;;11.50;92.30;;;;;;5051130;28;20041;-73
2021/06/22 04:51:57;;;;;;;21.37;15.37;;;11.50;92.30;;;;;;5050883;28;20056;-73
2021/06/22 04:54:24;;;;;;;19.20;15.27;;;11.60;92.70;;;;;;5050315;28;20041;-73
2021/06/22 04:56:51;;;;;;;23.70;16.93;;;11.60;92.40;;;;;;5050379;28;20107;-72
2021/06/22 04:59:17;;;;;;;21.53;14.67;;;11.60;92.40;;;;;;5050540;28;20052;-73
2021/06/22 05:01:42;;;;;;;21.43;16.80;;;11.60;92.50;;;;;;5049975;28;20053;-73
2021/06/22 05:04:08;;;;;;;21.90;16.07;;;11.70;92.60;;;;;;5050708;28;20482;-73
2021/06/22 05:06:34;;;;;;;21.77;15.97;;;11.80;92.70;;;;;;5050119;28;20481;-72
2021/06/22 05:08:59;;;;;;;24.07;16.53;;;11.90;92.60;;;;;;5050411;28;20143;-72
2021/06/22 05:11:25;;;;;;;22.87;16.57;;;12.00;92.50;;;;;;5050699;28;20190;-72
2021/06/22 05:13:51;;;;;;;22.10;16.10;;;12.00;92.40;;;;;;5049875;28;20455;-72
2021/06/22 05:16:17;;;;;;;21.30;15.40;;;12.00;92.30;;;;;;5050255;28;20170;-72
2021/06/22 05:18:45;;;;;;;20.57;15.07;;;12.00;92.30;;;;;;5050782;28;20078;-72
2021/06/22 05:21:11;;;;;;;25.10;14.67;;;12.10;92.10;;;;;;5049810;28;20106;-72
2021/06/22 05:23:37;;;;;;;20.07;14.77;;;12.10;91.90;;;;;;5050475;28;20459;-72
2021/06/22 05:26:03;;;;;;;18.80;15.20;;;12.10;91.80;;;;;;5050650;28;20068;-74
2021/06/22 05:28:29;;;;;;;24.03;15.77;;;12.20;91.60;;;;;;5049896;28;20045;-72
2021/06/22 05:30:56;;;;;;;20.53;14.97;;;12.20;91.50;;;;;;5050462;28;20045;-73
2021/06/22 05:33:22;;;;;;;24.17;15.70;;;12.30;91.50;;;;;;5050719;28;20136;-73
2021/06/22 05:35:49;;;;;;;23.53;15.10;;;12.40;91.20;;;;;;5050165;28;20363;-73
2021/06/22 05:38:15;;;;;;;18.50;14.30;;;12.50;91.10;;;;;;5050414;28;20148;-73
2021/06/22 05:40:41;;;;;;;19.70;14.80;;;12.60;91.00;;;;;;5050582;28;20148;-72
2021/06/22 05:43:06;;;;;;;19.97;14.97;;;12.70;90.90;;;;;;5049627;28;20435;-73
2021/06/22 05:45:32;;;;;;;19.27;14.20;;;12.70;90.80;;;;;;5032475;28;20052;-72
2021/06/22 05:47:58;;;;;;;21.57;15.10;;;12.80;90.60;;;;;;5050400;28;20128;-73
2021/06/22 05:50:24;;;;;;;19.70;13.83;;;12.80;90.60;;;;;;5049544;28;20072;-72
2021/06/22 05:52:51;;;;;;;22.63;13.87;;;12.90;90.60;;;;;;5050391;28;20553;-72
2021/06/22 05:55:16;;;;;;;24.00;13.93;;;12.90;90.60;;;;;;5050205;28;20045;-72
2021/06/22 05:57:47;;;;;;;22.30;13.00;;;12.90;90.60;;;;;;5049607;28;20473;-72
2021/06/22 06:00:18;;;;;;;14.40;11.07;;;13.00;90.60;;;;;;5050079;28;20435;-72
2021/06/22 06:02:44;;;;;;;19.17;11.30;;;13.00;90.50;;;;;;5049372;28;20486;-72
2021/06/22 06:05:11;;;;;;;17.70;11.67;;;13.10;90.30;;;;;;5050058;28;20045;-72
2021/06/22 06:07:37;;;;;;;16.67;11.40;;;13.10;90.20;;;;;;5050325;28;20053;-72
2021/06/22 06:10:04;;;;;;;18.73;11.50;;;13.20;90.20;;;;;;5051255;28;20064;-72
2021/06/22 06:12:32;;;;;;;17.37;11.17;;;13.20;90.10;;;;;;5054120;28;20049;-72
2021/06/22 06:14:58;;;;;;;13.97;10.33;;;13.30;90.00;;;;;;5035966;28;20053;-72
2021/06/22 06:17:24;;;;;;;17.53;9.77;;;13.30;90.00;;;;;;5053416;28;20082;-72
2021/06/22 06:19:50;;;;;;;18.13;10.00;;;13.40;89.80;;;;;;5053924;28;20052;-71
2021/06/22 06:22:19;;;;;;;18.70;9.43;;;13.50;89.50;;;;;;5053471;28;20501;-72
2021/06/22 06:24:45;;;;;;;17.60;9.43;;;13.50;89.10;;;;;;5053092;28;20049;-72
2021/06/22 06:27:15;;;;;;;16.87;9.57;;;13.60;89.00;;;;;;5053228;28;20516;-73
2021/06/22 06:29:49;;;;;;;16.43;9.10;;;13.70;89.00;;;;;;5054100;28;20072;-72
2021/06/22 06:32:15;;;;;;;14.80;6.30;;;13.80;89.10;;;;;;5052713;28;20049;-73
2021/06/22 06:34:42;;;;;;;13.70;6.77;;;13.90;87.70;;;;;;5053386;28;20375;-72
2021/06/22 06:37:07;;;;;;;13.67;7.20;;;13.90;87.80;;;;;;5053213;28;20216;-71
2021/06/22 06:39:33;;;;;;;13.00;6.20;;;14.00;87.90;;;;;;5052505;28;20525;-72
2021/06/22 06:41:59;;;;;;;16.80;5.70;;;14.10;87.50;;;;;;5053195;28;20512;-72
2021/06/22 06:44:24;;;;;;;9.97;4.33;;;14.10;86.90;;;;;;5053462;28;20132;-72
2021/06/22 06:46:50;;;;;;;11.93;5.50;;;14.20;86.20;;;;;;5052947;28;20064;-72
2021/06/22 06:49:16;;;;;;;14.17;5.33;;;14.20;86.00;;;;;;5053108;28;20520;-72
2021/06/22 06:51:41;;;;;;;10.37;4.70;;;14.30;85.90;;;;;;5053235;28;20045;-74
2021/06/22 06:54:07;;;;;;;13.53;5.23;;;14.30;85.10;;;;;;5052047;28;20188;-73
2021/06/22 06:56:33;;;;;;;13.80;5.17;;;14.40;85.00;;;;;;5035492;28;20053;-73
2021/06/22 06:58:59;;;;;;;11.33;5.53;;;14.40;85.00;;;;;;5052100;28;20481;-74
2021/06/22 07:01:24;;;;;;;11.17;5.33;;;14.50;84.60;;;;;;5053219;28;20044;-72
2021/06/22 07:03:50;;;;;;;14.97;5.80;;;14.60;84.60;;;;;;5053165;28;20080;-72
2021/06/22 07:06:16;;;;;;;13.93;5.40;;;14.60;84.50;;;;;;5051925;28;20049;-72
2021/06/22 07:08:42;;;;;;;13.50;5.70;;;14.60;84.30;;;;;;5052860;28;20363;-72
2021/06/22 07:11:08;;;;;;;11.07;6.27;;;14.70;84.10;;;;;;5052448;28;20045;-73
2021/06/22 07:13:34;;;;;;;12.73;6.17;;;14.70;83.60;;;;;;5052344;28;20037;-73
2021/06/22 07:16:03;;;;;;;12.13;6.00;;;14.80;83.80;;;;;;5052540;28;20056;-72
2021/06/22 07:18:31;;;;;;;13.03;5.87;;;14.90;83.50;;;;;;5052719;28;20071;-73
2021/06/22 07:20:59;;;;;;;15.97;7.23;;;15.00;83.50;;;;;;5051357;28;20064;-72
2021/06/22 07:23:25;;;;;;;14.57;6.03;;;15.10;83.10;;;;;;5052509;28;20135;-72
2021/06/22 07:25:51;;;;;;;20.80;5.03;;;15.10;82.60;;;;;;5052228;28;20634;-74
2021/06/22 07:28:17;;;;;;;11.70;5.37;;;15.10;82.50;;;;;;5051606;28;20041;-73
2021/06/22 07:30:42;;;;;;;13.00;5.50;;;15.00;82.60;;;;;;5052142;28;20496;-70
2021/06/22 07:33:08;;;;;;;11.30;4.93;;;15.00;83.10;;;;;;5051953;28;20055;-71
2021/06/22 07:35:35;;;;;;;13.43;5.03;;;15.00;83.40;;;;;;5051035;28;20080;-71
2021/06/22 07:38:01;;;;;;;13.17;5.17;;;15.00;83.10;;;;;;5052115;28;20088;-71
2021/06/22 07:40:46;;;;;;;14.73;5.50;;;15.00;83.10;;;;;;5037199;28;20128;-72
2021/06/22 07:43:13;;;;;;;13.80;4.77;;;15.00;82.80;;;;;;5051526;28;20139;-72
2021/06/22 07:45:41;;;;;;;10.73;4.80;;;14.90;82.60;;;;;;5051561;28;20144;-73
2021/06/22 07:48:08;;;;;;;11.27;5.63;;;14.90;83.00;;;;;;5051729;28;20118;-72
2021/06/22 07:50:34;;;;;;;11.77;5.00;;;14.90;83.20;;;;;;5051328;28;20044;-72
2021/06/22 07:53:02;;;;;;;13.27;5.10;;;14.90;83.00;;;;;;5052007;28;20133;-72
2021/06/22 07:55:31;;;;;;;16.63;4.97;;;14.90;83.30;;;;;;5051196;28;20091;-72
2021/06/22 07:57:57;;;;;;;12.73;4.77;;;14.90;83.20;;;;;;5052041;28;20048;-73
2021/06/22 08:00:38;;;;;;;14.43;4.67;;;14.80;82.60;;;;;;5051884;28;20056;-73
2021/06/22 08:03:07;;;;;;;9.77;4.77;;;14.80;82.40;;;;;;5051259;28;20118;-72
2021/06/22 08:05:34;;;;;;;10.23;4.63;;;14.80;82.00;;;;;;5051743;28;20137;-72
2021/06/22 08:08:00;;;;;;;10.43;4.50;;;14.80;82.20;;;;;;5051484;28;20053;-72
2021/06/22 08:10:26;;;;;;;14.67;4.53;;;14.90;81.70;;;;;;5051003;28;20050;-70
2021/06/22 08:12:52;;;;;;;11.70;4.10;;;14.90;81.10;;;;;;5051857;28;20056;-72
2021/06/22 08:15:18;;;;;;;10.63;4.53;;;15.00;80.80;;;;;;5051514;28;20049;-72
2021/06/22 08:17:43;;;;;;;9.90;4.03;;;15.00;81.20;;;;;;5051149;28;20098;-72
2021/06/22 08:20:10;;;;;;;8.73;3.77;;;15.20;80.90;;;;;;5050965;28;20605;-72
2021/06/22 08:22:37;;;;;;;9.20;4.10;;;15.30;80.50;;;;;;5050652;28;20190;-73
2021/06/22 08:25:05;;;;;;;11.60;5.03;;;15.40;79.90;;;;;;5050624;28;20052;-72
2021/06/22 08:27:30;;;;;;;16.37;5.07;;;15.50;79.80;;;;;;5051649;28;20056;-72
2021/06/22 08:29:56;;;;;;;11.53;4.03;;;15.60;80.00;;;;;;5051400;28;20171;-73
2021/06/22 08:32:21;;;;;;;11.47;3.70;;;15.70;80.00;;;;;;5049609;28;20169;-73
2021/06/22 08:34:47;;;;;;;12.53;4.70;;;15.90;79.80;;;;;;5051369;28;20060;-72
2021/06/22 08:37:13;;;;;;;8.33;3.80;;;16.00;79.60;;;;;;5051123;28;20202;-74
2021/06/22 08:39:39;;;;;;;7.30;3.87;;;16.10;78.10;;;;;;5050512;28;20431;-72
2021/06/22 08:42:06;;;;;;;10.27;3.67;;;16.20;78.00;;;;;;5050909;28;20057;-73
2021/06/22 08:44:33;;;;;;;7.07;3.70;;;16.30;77.80;;;;;;5050445;28;20041;-72
2021/06/22 08:46:59;;;;;;;8.40;3.63;;;16.40;76.40;;;;;;5051031;28;20089;-73
2021/06/22 08:49:27;;;;;;;8.97;3.97;;;16.50;75.00;;;;;;5051372;28;20065;-72
2021/06/22 08:51:54;;;;;;;10.63;3.73;;;16.40;75.20;;;;;;5050568;28;20056;-72
2021/06/22 08:54:20;;;;;;;11.97;3.53;;;16.30;74.80;;;;;;5050705;28;20053;-73
2021/06/22 08:56:45;;;;;;;8.13;3.60;;;16.20;74.70;;;;;;5050684;28;20512;-73
2021/06/22 08:59:11;;;;;;;8.37;3.37;;;16.10;74.80;;;;;;5050067;28;20056;-72
2021/06/22 09:01:36;;;;;;;9.37;3.30;;;16.10;74.70;;;;;;5046707;28;20476;-72
2021/06/22 09:04:02;;;;;;;9.33;3.37;;;16.20;75.00;;;;;;5057857;28;20567;-69
2021/06/22 09:06:42;;;;;;;9.13;3.07;;;16.20;74.90;;;;;;5066789;28;20048;-67
2021/06/22 09:09:08;;;;;;;7.30;3.03;;;16.20;73.80;;;;;;5067801;28;20110;-69
2021/06/22 09:11:35;;;;;;;7.00;3.20;;;16.20;74.10;;;;;;5067858;28;20515;-68
2021/06/22 09:14:03;;;;;;;7.27;3.20;;;16.30;73.70;;;;;;5067018;28;20178;-68
2021/06/22 09:16:30;;;;;;;9.53;3.20;;;16.40;72.40;;;;;;5067920;28;20475;-69
2021/06/22 09:19:02;;;;;;;6.40;3.40;;;16.50;72.10;;;;;;5067433;28;20497;-69
2021/06/22 09:21:28;;;;;;;8.52;3.30;;;16.60;71.60;;;;;;5066623;28;20386;-70
2021/06/22 09:23:56;;;;;;;8.57;3.43;;;16.80;71.50;;;;;;5067666;28;20465;-68
2021/06/22 09:26:30;;;;;;;9.70;3.20;;;16.90;71.20;;;;;;5067179;28;20139;-69
2021/06/22 09:29:08;;;;;;;13.20;4.20;;;17.20;71.50;;;;;;5066828;28;20080;-68
2021/06/22 09:31:34;;;;;;;10.07;3.63;;;17.30;71.40;;;;;;5067483;28;20048;-68
2021/06/22 09:33:59;;;;;;;6.27;3.13;;;17.20;69.90;;;;;;5066596;28;20852;-69
2021/06/22 09:36:28;;;;;;;9.93;3.57;;;17.20;69.30;;;;;;5067324;28;20048;-68
2021/06/22 09:39:08;;;;;;;10.13;3.30;;;17.20;69.40;;;;;;5067169;28;20053;-69
2021/06/22 09:41:36;;;;;;;9.73;3.33;;;17.40;68.40;;;;;;5066763;28;20126;-69
2021/06/22 09:44:12;;;;;;;7.40;3.63;;;17.60;66.80;;;;;;5069249;28;20048;-71
2021/06/22 09:46:46;;;;;;;10.10;4.10;;;17.60;67.40;;;;;;5071352;28;20139;-71
2021/06/22 09:49:31;;;;;;;9.27;3.70;;;17.50;67.30;;;;;;5070454;28;20075;-69
2021/06/22 09:52:01;;;;;;;13.63;3.70;;;17.40;67.30;;;;;;5071259;28;20052;-67
2021/06/22 09:54:28;;;;;;;17.30;3.57;;;17.20;67.60;;;;;;5071534;28;20193;-68
2021/06/22 09:56:55;;;;;;;9.90;3.33;;;17.00;67.50;;;;;;5070631;28;20052;-68
2021/06/22 09:59:20;;;;;;;10.13;4.17;;;16.90;68.20;;;;;;5070918;28;20052;-71
2021/06/22 10:01:46;;;;;;;13.17;3.83;;;16.90;68.70;;;;;;5070783;28;20049;-70
2021/06/22 10:04:13;;;;;;;9.30;4.37;;;16.80;68.60;;;;;;5070375;28;20465;-70
2021/06/22 10:06:40;;;;;;;14.77;5.07;;;16.70;68.30;;;;;;5040429;28;20067;-67
2021/06/22 10:09:06;;;;;;;10.30;4.40;;;16.60;68.80;;;;;;5069690;28;20438;-69
2021/06/22 10:11:41;;;;;;;12.33;5.37;;;16.50;68.80;;;;;;5070809;28;20072;-68
2021/06/22 10:14:21;;;;;;;9.97;4.70;;;16.50;69.10;;;;;;5070574;28;20105;-68
2021/06/22 10:16:48;;;;;;;11.70;4.13;;;16.50;69.50;;;;;;5069922;28;20191;-71
2021/06/22 10:19:14;;;;;;;10.30;5.00;;;16.50;69.70;;;;;;5070645;28;20127;-72
2021/06/22 10:21:40;;;;;;;10.70;4.20;;;16.50;70.00;;;;;;5071045;28;20044;-72
2021/06/22 10:24:07;;;;;;;11.17;4.87;;;16.50;69.80;;;;;;5069832;28;20055;-71
2021/06/22 10:26:32;;;;;;;10.20;4.73;;;16.40;70.00;;;;;;5070682;28;20048;-71
2021/06/22 10:29:01;;;;;;;13.03;4.97;;;16.40;70.80;;;;;;5069984;28;20052;-71
2021/06/22 10:31:27;;;;;;;11.33;4.73;;;16.30;71.00;;;;;;5069855;28;20056;-70
2021/06/22 10:33:53;;;;;;;12.93;4.83;;;16.30;70.90;;;;;;5070492;28;20048;-71
2021/06/22 10:36:24;;;;;;;13.13;5.00;;;16.20;71.00;;;;;;5070233;28;20052;-71
2021/06/22 10:38:51;;;;;;;11.80;4.40;;;16.20;71.30;;;;;;5069073;28;20067;-71
2021/06/22 10:41:20;;;;;;;14.40;4.90;;;16.20;71.20;;;;;;5060924;28;20168;-72
2021/06/22 10:43:47;;;;;;;8.00;4.00;;;16.20;71.80;;;;;;5050163;28;20120;-72
2021/06/22 10:46:19;;;;;;;10.03;4.00;;;16.10;71.40;;;;;;5049044;28;20439;-73
2021/06/22 10:48:52;;;;;;;11.93;4.30;;;16.10;70.60;;;;;;5049677;28;20049;-73
2021/06/22 10:51:39;;;;;;;8.13;4.40;;;16.20;70.90;;;;;;5049086;28;20057;-74
2021/06/22 10:54:05;;;;;;;8.23;4.80;;;16.20;71.00;;;;;;5031230;28;20060;-74
2021/06/22 10:56:32;;;;;;;14.07;4.90;;;16.20;70.90;;;;;;5049223;28;20421;-74
2021/06/22 10:59:18;;;;;;;10.57;4.73;;;16.20;71.00;;;;;;5048586;28;20132;-73
2021/06/22 11:01:53;;;;;;;11.33;4.67;;;16.20;70.20;;;;;;5050067;28;20408;-74
2021/06/22 11:04:19;;;;;;;8.90;4.50;;;16.20;70.20;;;;;;5049281;28;20063;-73
2021/06/22 11:07:07;;;;;;;8.60;4.60;;;16.30;70.50;;;;;;5048712;28;20126;-74
2021/06/22 11:09:33;;;;;;;11.43;5.17;;;16.30;70.40;;;;;;5049794;28;20071;-71
2021/06/22 11:12:17;;;;;;;11.43;4.93;;;16.30;70.20;;;;;;5049553;28;20465;-72
2021/06/22 11:14:59;;;;;;;9.87;4.90;;;16.40;69.90;;;;;;5049353;28;20079;-71
2021/06/22 11:17:49;;;;;;;10.80;4.93;;;16.50;70.00;;;;;;5049407;28;20052;-72
2021/06/22 11:20:17;;;;;;;9.33;4.70;;;16.60;68.20;;;;;;5048201;28;20044;-72
2021/06/22 11:22:59;;;;;;;11.97;5.70;;;16.60;69.20;;;;;;5049020;28;20140;-71
2021/06/22 11:25:46;;;;;;;15.75;6.05;;;16.60;69.20;;;;;;5051653;28;20053;-71
2021/06/22 11:28:13;;;;;;;11.80;5.30;;;16.60;67.90;;;;;;5050900;28;20071;-72
2021/06/22 11:30:55;;;;;;;11.47;5.30;;;16.70;69.10;;;;;;5052405;28;20044;-72
2021/06/22 11:33:34;;;;;;;11.93;5.13;;;16.70;68.80;;;;;;5050917;28;20049;-72
2021/06/22 11:36:21;;;;;;;10.00;5.20;;;16.70;68.70;;;;;;5052339;28;20199;-72
2021/06/22 11:39:11;;;;;;;12.70;6.73;;;16.70;68.30;;;;;;5052241;28;20466;-70
2021/06/22 11:41:38;;;;;;;10.47;5.23;;;16.70;69.00;;;;;;5051634;28;20114;-72
2021/06/22 11:44:06;;;;;;;14.07;6.20;;;16.70;69.00;;;;;;5052092;28;20053;-72
2021/06/22 11:46:34;;;;;;;13.33;6.63;;;16.70;68.50;;;;;;5052489;28;20052;-72
2021/06/22 11:49:00;;;;;;;14.33;6.20;;;16.70;68.10;;;;;;5051284;28;20073;-72
2021/06/22 11:51:51;;;;;;;10.50;6.03;;;16.70;68.00;;;;;;5051305;28;20056;-71
2021/06/22 11:54:19;;;;;;;11.13;7.00;;;16.80;67.30;;;;;;5051800;28;20064;-71
2021/06/22 11:56:46;;;;;;;9.20;5.57;;;16.90;67.90;;;;;;5051401;28;20102;-72
2021/06/22 11:59:12;;;;;;;9.57;5.67;;;17.10;66.90;;;;;;5052075;28;20152;-73
2021/06/22 12:01:44;;;;;;;12.30;6.17;;;17.20;66.20;;;;;;5051288;28;20192;-73
2021/06/22 12:04:10;;;;;;;13.63;5.60;;;17.30;65.60;;;;;;5051691;28;20052;-72
2021/06/22 12:06:35;;;;;;;9.57;5.53;;;17.40;65.00;;;;;;5051695;28;20098;-72
2021/06/22 12:09:15;;;;;;;10.53;5.97;;;17.30;64.50;;;;;;5051086;28;20095;-73
2021/06/22 12:11:43;;;;;;;12.77;5.47;;;17.30;65.00;;;;;;5052125;28;20063;-73
2021/06/22 12:14:12;;;;;;;11.27;5.77;;;17.30;64.60;;;;;;5051473;28;20084;-72
2021/06/22 12:16:38;;;;;;;12.50;5.50;;;17.40;64.40;;;;;;5051057;28;20223;-71
2021/06/22 12:19:07;;;;;;;10.93;5.73;;;17.50;64.30;;;;;;5051179;28;20223;-70
2021/06/22 12:21:39;;;;;;;8.30;5.70;;;17.50;64.50;;;;;;5050884;28;20047;-69
2021/06/22 12:24:07;;;;;;;11.97;5.60;;;17.50;64.80;;;;;;5050723;28;20072;-71
2021/06/22 12:26:34;;;;;;;13.03;6.73;;;17.40;65.20;;;;;;5050718;28;20045;-71
2021/06/22 12:28:59;;;;;;;9.37;5.83;;;17.20;64.80;;;;;;5050936;28;20072;-72
2021/06/22 12:31:25;;;;;;;12.40;6.60;;;17.10;65.70;;;;;;5050539;28;20071;-72
2021/06/22 12:33:58;;;;;;;11.73;6.63;;;17.30;65.90;;;;;;5051166;28;20060;-72
2021/06/22 12:36:24;;;;;;;12.13;6.13;;;17.50;64.70;;;;;;5051124;28;20126;-73
2021/06/22 12:38:57;;;;;;;13.50;6.40;;;17.80;63.00;;;;;;5050425;28;20478;-71